Terminal Aerodrome Forecast
Issued by NWS

Home | Current Version | Previous Version | Text Only | Print | Product List | Glossary On
Versions: 1 2 3 4 5 6 7 8 9 10 11 12
466
FTUS42 KGSP 162332
TAFGMU
TAF
KGMU 162332Z 1700/1724 21004KT P6SM OVC060
     FM170200 25004KT P6SM VCSH OVC050
     FM170400 28004KT P6SM OVC040
      TEMPO 1704/1708 4SM -SN OVC025
     FM170800 33005KT 3SM -SN OVC015
     FM171300 34005KT P6SM OVC020 PROB30 1713/1715 2SM -SN OVC015
     FM171700 35009KT P6SM BKN035=

USA.gov is the U.S. government's official web portal to all federal, state and local government web resources and services.